Euro IV — IQNH — position and weather

sailwx.info

Track history (hours):
 
Tides and Currents Weather Stations Pressure Air Temp Water Temp Dewpoint Dewpoint Depression Visibility Wind Speed Wind Dir Waves Ship Positions

Euro IV

Last reported at 2015-May-06 09:30 UTC. Time now 2015-May-06 10:27 UTC.
Position N 44°08' E 009°41'.

Length 25 m; draft 1.3 m.

Type: Passenger vessel. MMSI: 247131500.

Date/timePositionNaut miles runAvg speedWind from/ knotsBaromVisibWave heightAir tempDewpointWater temp
2015-May-06 09:30N 44°08' E 009°41'9 9.1
2015-May-06 08:34N 44°03' E 009°51'3 3.2
2015-May-06 07:33N 44°06' E 009°50'0 0.1
2015-May-06 06:34N 44°06' E 009°50'1 0.0
2015-May-05 14:34N 44°06' E 009°50'5 4.9
2015-May-05 13:29N 44°06' E 009°43'5 1.8
2015-May-05 10:31N 44°09' E 009°37'6 5.7
2015-May-05 09:26N 44°06' E 009°44'8 8.7
2015-May-05 08:33N 44°04' E 009°54'0 0.2
2015-May-05 07:33N 44°05' E 009°54'4 0.2
2015-May-04 17:26N 44°06' E 009°50'10 9.0
2015-May-04 16:19N 44°09' E 009°37'6 6.9
2015-May-04 15:24N 44°06' E 009°44'5 6.1
2015-May-04 14:33N 44°03' E 009°50'4 4.1
2015-May-04 13:33N 44°05' E 009°45'6 2.3
2015-May-04 11:05N 44°09' E 009°39'4 6.6
2015-May-04 10:25N 44°06' E 009°44'5 5.6
2015-May-04 09:33N 44°05' E 009°51'1 1.4
2015-May-04 08:33N 44°06' E 009°49'0 0.0
2015-May-04 07:33N 44°06' E 009°49'0 0.0
2015-May-04 06:33N 44°06' E 009°49'1 0.1
2015-May-03 14:33N 44°05' E 009°51'3 3.0
2015-May-03 13:34N 44°04' E 009°55'0 0.2
2015-May-03 12:34N 44°04' E 009°54'0 0.2
2015-May-03 11:34N 44°04' E 009°55'3 3.4
2015-May-03 10:33N 44°03' E 009°50'3 1.5
2015-May-03 08:27N 44°06' E 009°49'0 0.0
2015-May-03 07:33N 44°06' E 009°49'0 0.0
2015-May-02 09:18N 44°06' E 009°49'0 0.0
2015-May-02 08:33N 44°06' E 009°49'0 0.0
2015-May-02 07:33N 44°06' E 009°49'0 0.0
2015-May-02 06:33N 44°06' E 009°49'  
2015-Apr-29 08:33N 44°06' E 009°49'0 0.0
2015-Apr-29 07:33N 44°06' E 009°49'0 0.0
2015-Apr-29 06:33N 44°06' E 009°49'0 0.0
2015-Apr-28 11:33N 44°06' E 009°50'3 2.9
2015-Apr-28 10:33N 44°03' E 009°50'10 9.4
2015-Apr-28 09:32N 44°09' E 009°39'3 3.1
2015-Apr-28 08:31N 44°07' E 009°43'6 5.8
2015-Apr-28 07:33N 44°05' E 009°50'1 0.0
2015-Apr-26 16:22N 44°06' E 009°50'911.6
2015-Apr-26 15:33N 44°08' E 009°37'5 5.3
2015-Apr-26 14:33N 44°06' E 009°44'5 5.5
2015-Apr-26 13:33N 44°03' E 009°50'3 3.4
2015-Apr-26 12:33N 44°04' E 009°55'3 3.4
2015-Apr-26 11:33N 44°03' E 009°50'0 0.0
2015-Apr-26 10:33N 44°03' E 009°50'3 3.1
2015-Apr-26 09:33N 44°06' E 009°49'  
Track history (hours):
 
Tides and Currents Weather Stations Pressure Air Temp Water Temp Dewpoint Dewpoint Depression Visibility Wind Speed Wind Dir Waves Ship Positions

Euro IV

Last reported at 2015-May-06 09:30 UTC. Time now 2015-May-06 10:27 UTC.
Position N 44°08' E 009°41'.

Length 25 m; draft 1.3 m.

Type: Passenger vessel. MMSI: 247131500.

Date/timePositionNaut miles runAvg speedWind from/ knotsBaromVisibWave heightAir tempDewpointWater temp
2015-May-06 09:30N 44°08' E 009°41'9 9.1
2015-May-06 08:34N 44°03' E 009°51'3 3.2
2015-May-06 07:33N 44°06' E 009°50'0 0.1
2015-May-06 06:34N 44°06' E 009°50'1 0.0
2015-May-05 14:34N 44°06' E 009°50'5 4.9
2015-May-05 13:29N 44°06' E 009°43'5 1.8
2015-May-05 10:31N 44°09' E 009°37'6 5.7
2015-May-05 09:26N 44°06' E 009°44'8 8.7
2015-May-05 08:33N 44°04' E 009°54'0 0.2
2015-May-05 07:33N 44°05' E 009°54'4 0.2
2015-May-04 17:26N 44°06' E 009°50'10 9.0
2015-May-04 16:19N 44°09' E 009°37'6 6.9
2015-May-04 15:24N 44°06' E 009°44'5 6.1
2015-May-04 14:33N 44°03' E 009°50'4 4.1
2015-May-04 13:33N 44°05' E 009°45'6 2.3
2015-May-04 11:05N 44°09' E 009°39'4 6.6
2015-May-04 10:25N 44°06' E 009°44'5 5.6
2015-May-04 09:33N 44°05' E 009°51'1 1.4
2015-May-04 08:33N 44°06' E 009°49'0 0.0
2015-May-04 07:33N 44°06' E 009°49'0 0.0
2015-May-04 06:33N 44°06' E 009°49'1 0.1
2015-May-03 14:33N 44°05' E 009°51'3 3.0
2015-May-03 13:34N 44°04' E 009°55'0 0.2
2015-May-03 12:34N 44°04' E 009°54'0 0.2
2015-May-03 11:34N 44°04' E 009°55'3 3.4
2015-May-03 10:33N 44°03' E 009°50'3 1.5
2015-May-03 08:27N 44°06' E 009°49'0 0.0
2015-May-03 07:33N 44°06' E 009°49'0 0.0
2015-May-02 09:18N 44°06' E 009°49'0 0.0
2015-May-02 08:33N 44°06' E 009°49'0 0.0
2015-May-02 07:33N 44°06' E 009°49'0 0.0
2015-May-02 06:33N 44°06' E 009°49'  
2015-Apr-29 08:33N 44°06' E 009°49'0 0.0
2015-Apr-29 07:33N 44°06' E 009°49'0 0.0
2015-Apr-29 06:33N 44°06' E 009°49'0 0.0
2015-Apr-28 11:33N 44°06' E 009°50'3 2.9
2015-Apr-28 10:33N 44°03' E 009°50'10 9.4
2015-Apr-28 09:32N 44°09' E 009°39'3 3.1
2015-Apr-28 08:31N 44°07' E 009°43'6 5.8
2015-Apr-28 07:33N 44°05' E 009°50'1 0.0
2015-Apr-26 16:22N 44°06' E 009°50'911.6
2015-Apr-26 15:33N 44°08' E 009°37'5 5.3
2015-Apr-26 14:33N 44°06' E 009°44'5 5.5
2015-Apr-26 13:33N 44°03' E 009°50'3 3.4
2015-Apr-26 12:33N 44°04' E 009°55'3 3.4
2015-Apr-26 11:33N 44°03' E 009°50'0 0.0
2015-Apr-26 10:33N 44°03' E 009°50'3 3.1
2015-Apr-26 09:33N 44°06' E 009°49'  

Dump ship's entire track history